createdAt,value
2018-05-27T00:01:17.136Z,17.90
2018-05-27T00:03:47.267Z,18.20
2018-05-27T00:06:16.882Z,18.30
2018-05-27T00:08:47.848Z,18.40
2018-05-27T00:11:17.679Z,18.30
2018-05-27T00:13:47.650Z,18.10
2018-05-27T00:16:20.753Z,17.70
2018-05-27T00:18:51.608Z,17.50
2018-05-27T00:21:21.615Z,17.30
2018-05-27T00:23:51.445Z,17.30
2018-05-27T00:26:21.084Z,17.30
2018-05-27T00:28:50.882Z,17.30
2018-05-27T00:31:21.195Z,17.30
2018-05-27T00:33:51.815Z,17.30
2018-05-27T00:36:21.503Z,17.30
2018-05-27T00:38:51.179Z,17.40
2018-05-27T00:41:21.050Z,17.50
2018-05-27T00:43:50.770Z,17.60
2018-05-27T00:46:20.497Z,17.80
2018-05-27T00:48:50.321Z,17.90
2018-05-27T00:51:20.926Z,18.00
2018-05-27T00:54:01.054Z,18.00
2018-05-27T00:56:30.877Z,18.00
2018-05-27T00:59:01.149Z,17.90
2018-05-27T01:01:32.133Z,17.80
2018-05-27T01:04:02.309Z,17.70
2018-05-27T01:06:31.955Z,17.70
2018-05-27T01:09:02.993Z,17.80
2018-05-27T01:11:32.808Z,17.80
2018-05-27T01:14:02.883Z,17.80
2018-05-27T01:16:32.773Z,17.80
2018-05-27T01:19:03.504Z,18.00
2018-05-27T01:21:33.663Z,18.00
2018-05-27T01:24:04.154Z,18.10
2018-05-27T01:26:33.880Z,18.30
2018-05-27T01:29:07.266Z,18.20
2018-05-27T01:31:38.920Z,18.00
2018-05-27T01:34:08.523Z,17.90
2018-05-27T01:36:38.588Z,17.90
2018-05-27T01:39:14.490Z,17.80
2018-05-27T01:41:45.884Z,17.70
2018-05-27T01:44:15.744Z,17.70
2018-05-27T01:46:45.630Z,17.70
2018-05-27T01:49:15.254Z,17.60
2018-05-27T01:51:45.423Z,17.70
2018-05-27T01:54:16.233Z,17.70
2018-05-27T01:56:46.212Z,17.60
2018-05-27T01:59:15.788Z,17.70
2018-05-27T02:01:45.712Z,17.70
2018-05-27T02:04:16.425Z,17.50
2018-05-27T02:06:46.728Z,17.40
2018-05-27T02:09:16.359Z,17.40
2018-05-27T02:11:47.031Z,17.30
2018-05-27T02:14:16.672Z,17.20
2018-05-27T02:16:46.670Z,17.20
2018-05-27T02:19:16.301Z,17.20
2018-05-27T02:21:46.954Z,17.20
2018-05-27T02:24:17.671Z,17.50
2018-05-27T02:26:47.530Z,17.50
2018-05-27T02:29:17.209Z,17.50
2018-05-27T02:31:46.740Z,17.50
2018-05-27T02:34:17.961Z,17.30
2018-05-27T02:36:48.636Z,17.20
2018-05-27T02:39:19.031Z,17.20
2018-05-27T02:42:11.236Z,17.10
2018-05-27T02:44:41.991Z,17.10
2018-05-27T02:47:12.171Z,17.00
2018-05-27T02:49:42.727Z,16.60
2018-05-27T02:52:12.568Z,16.60
2018-05-27T02:54:42.395Z,16.60
2018-05-27T02:57:12.601Z,16.60
2018-05-27T02:59:42.328Z,16.50
2018-05-27T03:02:12.155Z,16.40
2018-05-27T03:04:42.835Z,16.50
2018-05-27T03:07:13.863Z,16.50
2018-05-27T03:09:43.710Z,16.50
2018-05-27T03:12:13.540Z,16.40
2018-05-27T03:14:43.254Z,16.50
2018-05-27T03:17:12.728Z,16.90
2018-05-27T03:19:42.359Z,17.10
2018-05-27T03:22:12.056Z,17.10
2018-05-27T03:24:41.974Z,17.30
2018-05-27T03:27:11.541Z,17.30
2018-05-27T03:29:41.200Z,17.20
2018-05-27T03:32:11.808Z,17.30
2018-05-27T03:34:41.300Z,17.30
2018-05-27T03:37:11.555Z,17.30
2018-05-27T03:39:41.012Z,17.20
2018-05-27T03:42:11.572Z,17.10
2018-05-27T03:44:41.077Z,17.10
2018-05-27T03:47:10.892Z,17.10
2018-05-27T03:49:40.349Z,17.10
2018-05-27T03:52:09.826Z,17.10
2018-05-27T03:54:39.639Z,17.20
2018-05-27T03:57:09.454Z,17.30
2018-05-27T03:59:38.975Z,17.40
2018-05-27T04:02:08.478Z,17.50
2018-05-27T04:05:06.213Z,17.70
2018-05-27T04:10:42.500Z,17.80
2018-05-27T04:13:12.241Z,17.80
2018-05-27T04:15:41.830Z,18.00
2018-05-27T04:18:11.541Z,18.10
2018-05-27T04:20:41.097Z,18.10
2018-05-27T04:23:10.807Z,18.20
2018-05-27T04:25:40.356Z,18.20
2018-05-27T04:28:09.915Z,18.30
2018-05-27T04:30:40.167Z,18.30
2018-05-27T04:33:09.791Z,18.30
2018-05-27T04:35:39.319Z,18.20
2018-05-27T04:38:08.933Z,18.10
2018-05-27T04:40:38.639Z,18.20
2018-05-27T04:43:08.227Z,18.40
2018-05-27T04:45:37.775Z,18.60
2018-05-27T04:48:07.429Z,19.00
2018-05-27T04:50:37.062Z,19.00
2018-05-27T04:53:06.550Z,19.10
2018-05-27T04:55:36.154Z,19.20
2018-05-27T04:58:05.670Z,19.40
2018-05-27T05:00:35.194Z,19.50
2018-05-27T05:03:04.923Z,19.70
2018-05-27T05:05:34.405Z,19.70
2018-05-27T05:08:04.096Z,19.70
2018-05-27T05:10:33.708Z,19.90
2018-05-27T05:13:04.011Z,20.00
2018-05-27T05:15:34.585Z,20.10
2018-05-27T05:18:04.161Z,20.10
2018-05-27T05:20:33.777Z,20.00
2018-05-27T05:23:03.392Z,20.20
2018-05-27T05:25:32.885Z,20.40
2018-05-27T05:28:02.739Z,20.70
2018-05-27T05:30:32.276Z,20.60
2018-05-27T05:33:02.333Z,20.80
2018-05-27T05:35:32.580Z,20.90
2018-05-27T05:38:02.501Z,21.20
2018-05-27T05:40:32.925Z,21.40
2018-05-27T05:43:02.733Z,21.60
2018-05-27T05:45:32.317Z,21.70
2018-05-27T05:48:02.671Z,21.50
2018-05-27T05:50:32.359Z,21.40
2018-05-27T05:53:02.485Z,20.60
2018-05-27T05:55:33.608Z,20.80
2018-05-27T05:58:03.372Z,20.80
2018-05-27T06:00:33.168Z,21.30
2018-05-27T06:03:03.209Z,22.10
2018-05-27T06:05:33.610Z,21.80
2018-05-27T06:08:04.561Z,21.80
2018-05-27T06:10:34.083Z,21.70
2018-05-27T06:13:03.569Z,21.70
2018-05-27T06:15:35.272Z,21.40
2018-05-27T06:18:05.352Z,21.30
2018-05-27T06:20:35.020Z,21.30
2018-05-27T06:23:04.567Z,21.10
2018-05-27T06:25:34.163Z,21.20
2018-05-27T06:28:06.889Z,21.50
2018-05-27T06:30:39.415Z,21.70
2018-05-27T06:33:09.161Z,21.90
2018-05-27T06:35:40.572Z,22.10
2018-05-27T06:38:17.661Z,22.10
2018-05-27T06:40:47.198Z,22.10
2018-05-27T06:43:16.713Z,22.30
2018-05-27T06:45:47.645Z,22.70
2018-05-27T06:48:19.050Z,22.50
2018-05-27T06:50:49.647Z,22.40
2018-05-27T06:53:20.044Z,22.40
2018-05-27T06:55:49.646Z,22.40
2018-05-27T06:58:20.468Z,22.50
2018-05-27T07:00:53.296Z,22.50
2018-05-27T07:03:23.596Z,22.40
2018-05-27T07:06:05.405Z,21.90
2018-05-27T07:08:38.160Z,21.90
2018-05-27T07:11:13.584Z,22.30
2018-05-27T07:13:46.610Z,21.80
2018-05-27T07:16:21.722Z,21.90
2018-05-27T07:18:51.650Z,21.90
2018-05-27T07:21:29.687Z,22.40
2018-05-27T07:24:01.721Z,22.40
2018-05-27T07:26:32.748Z,22.40
2018-05-27T07:29:03.840Z,22.60
2018-05-27T07:31:34.579Z,23.30
2018-05-27T07:37:41.420Z,23.90
2018-05-27T07:40:14.238Z,24.70
2018-05-27T07:42:58.256Z,25.00
2018-05-27T07:45:39.782Z,24.90
2018-05-27T07:48:09.300Z,25.50
2018-05-27T07:50:38.961Z,26.70
2018-05-27T07:53:09.515Z,26.50
2018-05-27T07:55:39.907Z,27.00
2018-05-27T07:58:11.703Z,27.40
2018-05-27T08:00:41.234Z,27.40
2018-05-27T08:03:10.833Z,27.70
2018-05-27T08:05:41.801Z,26.00
2018-05-27T08:08:12.076Z,26.40
2018-05-27T08:10:41.895Z,26.30
2018-05-27T08:13:11.430Z,26.70
2018-05-27T08:15:41.865Z,26.60
2018-05-27T08:18:12.525Z,26.00
2018-05-27T08:20:42.194Z,25.90
2018-05-27T08:23:12.450Z,25.30
2018-05-27T08:25:41.979Z,25.20
2018-05-27T08:28:11.546Z,25.00
2018-05-27T08:30:42.009Z,25.50
2018-05-27T08:33:11.517Z,25.40
2018-05-27T08:35:41.242Z,25.20
2018-05-27T08:38:10.884Z,25.60
2018-05-27T08:40:40.562Z,25.30
2018-05-27T08:43:10.168Z,25.80
2018-05-27T08:45:39.708Z,26.10
2018-05-27T08:48:09.647Z,26.50
2018-05-27T08:50:40.346Z,26.10
2018-05-27T08:53:10.462Z,27.10
2018-05-27T08:55:40.076Z,27.20
2018-05-27T08:58:09.624Z,26.50
2018-05-27T09:00:39.335Z,26.90
2018-05-27T09:03:09.095Z,26.80
2018-05-27T09:05:38.871Z,25.80
2018-05-27T09:08:09.860Z,25.50
2018-05-27T09:10:39.523Z,25.50
2018-05-27T09:13:09.890Z,25.60
2018-05-27T09:15:39.394Z,25.60
2018-05-27T09:18:09.253Z,25.70
2018-05-27T09:20:38.872Z,26.20
2018-05-27T09:23:08.581Z,26.80
2018-05-27T09:25:38.297Z,27.40
2018-05-27T09:28:07.835Z,27.50
2018-05-27T09:30:37.553Z,26.70
2018-05-27T09:33:06.974Z,26.20
2018-05-27T09:35:36.667Z,25.70
2018-05-27T09:38:06.145Z,26.00
2018-05-27T09:40:37.086Z,26.10
2018-05-27T09:43:07.399Z,25.80
2018-05-27T09:45:36.898Z,25.80
2018-05-27T09:48:06.495Z,25.30
2018-05-27T09:50:36.182Z,25.30
2018-05-27T09:53:05.684Z,25.50
2018-05-27T09:55:35.427Z,25.90
2018-05-27T09:58:04.982Z,25.60
2018-05-27T10:00:35.403Z,26.00
2018-05-27T10:03:04.876Z,26.00
2018-05-27T10:05:34.478Z,26.10
2018-05-27T10:08:15.047Z,26.20
2018-05-27T10:10:44.983Z,25.70
2018-05-27T10:13:15.263Z,25.70
2018-05-27T10:15:46.115Z,25.70
2018-05-27T10:18:15.678Z,25.30
2018-05-27T10:20:45.274Z,24.90
2018-05-27T10:23:14.901Z,24.80
2018-05-27T10:25:45.405Z,24.80
2018-05-27T10:28:15.027Z,24.90
2018-05-27T10:30:44.739Z,25.30
2018-05-27T10:33:14.813Z,25.30
2018-05-27T10:35:45.321Z,25.30
2018-05-27T10:38:15.976Z,25.20
2018-05-27T10:40:46.290Z,25.50
2018-05-27T10:43:15.998Z,25.40
2018-05-27T10:45:45.506Z,25.50
2018-05-27T10:48:15.685Z,25.60
2018-05-27T10:50:45.323Z,25.90
2018-05-27T10:53:15.419Z,25.90
2018-05-27T10:55:45.874Z,26.10
2018-05-27T10:58:15.652Z,26.10
2018-05-27T11:00:45.117Z,26.20
2018-05-27T11:03:14.828Z,26.20
2018-05-27T11:05:45.193Z,25.90
2018-05-27T11:08:15.810Z,25.40
2018-05-27T11:10:46.094Z,25.10
2018-05-27T11:13:15.907Z,25.10
2018-05-27T11:15:57.301Z,25.50
2018-05-27T11:18:28.246Z,25.50
2018-05-27T11:20:57.975Z,25.50
2018-05-27T11:23:28.288Z,25.70
2018-05-27T11:25:58.116Z,25.60
2018-05-27T11:28:28.627Z,26.20
2018-05-27T11:30:58.240Z,26.20
2018-05-27T11:33:28.092Z,26.10
2018-05-27T11:35:57.695Z,25.80
2018-05-27T11:38:27.767Z,25.90
2018-05-27T11:40:57.332Z,26.10
2018-05-27T11:43:26.795Z,25.90
2018-05-27T11:45:56.289Z,26.30
2018-05-27T11:48:25.742Z,26.90
2018-05-27T11:50:55.270Z,26.60
2018-05-27T11:53:24.817Z,26.30
2018-05-27T11:55:55.135Z,26.60
2018-05-27T11:58:24.647Z,26.50
2018-05-27T12:00:55.004Z,26.50
2018-05-27T12:03:24.541Z,26.40
2018-05-27T12:05:54.150Z,26.90
2018-05-27T12:08:23.808Z,27.80
2018-05-27T12:10:55.689Z,27.50
2018-05-27T12:13:26.522Z,27.50
2018-05-27T12:15:56.375Z,27.30
2018-05-27T12:18:26.046Z,27.60
2018-05-27T12:20:55.913Z,27.50
2018-05-27T12:23:26.303Z,27.40
2018-05-27T12:25:55.907Z,27.40
2018-05-27T12:28:25.508Z,27.50
2018-05-27T12:30:54.978Z,27.60
2018-05-27T12:33:24.411Z,27.60
2018-05-27T12:35:53.880Z,27.60
2018-05-27T12:38:23.302Z,27.40
2018-05-27T12:40:53.929Z,27.50
2018-05-27T12:43:23.386Z,27.50
2018-05-27T12:45:52.952Z,26.70
2018-05-27T12:48:22.430Z,26.40
2018-05-27T12:50:52.307Z,26.50
2018-05-27T12:53:21.769Z,27.10
2018-05-27T12:55:52.046Z,27.80
2018-05-27T12:58:21.702Z,27.70
2018-05-27T13:00:51.315Z,28.00
2018-05-27T13:03:20.943Z,27.70
2018-05-27T13:05:50.553Z,28.00
2018-05-27T13:08:20.099Z,28.30
2018-05-27T13:10:49.934Z,28.30
2018-05-27T13:13:32.176Z,28.00
2018-05-27T13:16:14.655Z,28.30
2018-05-27T13:18:45.541Z,27.90
2018-05-27T13:21:15.538Z,28.00
2018-05-27T13:23:45.287Z,27.70
2018-05-27T13:26:14.776Z,27.40
2018-05-27T13:28:44.625Z,26.70
2018-05-27T13:31:14.110Z,26.60
2018-05-27T13:33:44.478Z,26.80
2018-05-27T13:36:14.683Z,26.90
2018-05-27T13:38:44.272Z,27.30
2018-05-27T13:41:13.777Z,26.90
2018-05-27T13:43:44.858Z,26.90
2018-05-27T13:46:15.187Z,26.80
2018-05-27T13:48:44.764Z,26.70
2018-05-27T13:51:14.531Z,26.80
2018-05-27T13:53:44.360Z,26.80
2018-05-27T13:56:15.240Z,26.60
2018-05-27T13:58:45.008Z,26.60
2018-05-27T14:01:14.633Z,26.50
2018-05-27T14:03:44.217Z,26.40
2018-05-27T14:06:14.279Z,26.50
2018-05-27T14:08:43.992Z,26.60
2018-05-27T14:11:13.535Z,26.70
2018-05-27T14:13:43.034Z,26.60
2018-05-27T14:16:13.911Z,26.60
2018-05-27T14:18:43.592Z,26.60
2018-05-27T14:21:14.318Z,26.70
2018-05-27T14:23:44.664Z,26.80
2018-05-27T14:26:14.296Z,26.80
2018-05-27T14:28:43.923Z,26.80
2018-05-27T14:31:14.586Z,26.70
2018-05-27T14:33:44.199Z,26.80
2018-05-27T14:36:14.527Z,26.80
2018-05-27T14:38:51.330Z,26.80
2018-05-27T15:45:42.747Z,25.50
2018-05-27T16:10:13.141Z,24.70
2018-05-27T16:12:42.898Z,24.60
2018-05-27T16:15:16.544Z,24.70
2018-05-27T16:17:46.737Z,24.70
2018-05-27T16:20:17.313Z,24.70
2018-05-27T16:22:48.194Z,24.60
2018-05-27T16:25:18.677Z,24.60
2018-05-27T16:27:49.387Z,24.50
2018-05-27T16:30:20.675Z,24.40
2018-05-27T16:32:51.181Z,24.50
2018-05-27T16:35:20.877Z,24.40
2018-05-27T16:37:50.374Z,24.40
2018-05-27T16:40:22.297Z,24.40
2018-05-27T16:42:51.958Z,24.40
2018-05-27T16:45:21.459Z,24.40
2018-05-27T16:47:50.987Z,24.20
2018-05-27T16:50:21.413Z,24.20
2018-05-27T16:52:51.972Z,24.30
2018-05-27T16:55:21.941Z,24.20
2018-05-27T16:57:53.194Z,24.30
2018-05-27T17:00:25.623Z,24.30
2018-05-27T17:02:55.569Z,24.30
2018-05-27T17:05:26.111Z,24.20
2018-05-27T17:07:55.580Z,24.10
2018-05-27T17:10:25.119Z,24.10
2018-05-27T17:12:54.942Z,24.00
2018-05-27T17:15:24.368Z,24.00
2018-05-27T17:17:54.317Z,23.90
2018-05-27T17:20:28.278Z,23.90
2018-05-27T17:23:00.991Z,23.80
2018-05-27T17:28:25.434Z,23.60
2018-05-27T17:30:55.700Z,23.40
2018-05-27T17:33:25.211Z,23.30
2018-05-27T17:35:55.280Z,23.30
2018-05-27T17:38:26.289Z,23.20
2018-05-27T17:40:56.533Z,23.20
2018-05-27T17:43:27.919Z,23.30
2018-05-27T17:45:57.328Z,23.30
2018-05-27T17:48:26.890Z,23.40
2018-05-27T17:50:57.159Z,23.50
2018-05-27T17:53:26.648Z,23.40
2018-05-27T17:55:56.884Z,23.50
2018-05-27T17:58:26.580Z,23.50
2018-05-27T18:00:56.925Z,23.20
2018-05-27T18:03:26.591Z,23.20
2018-05-27T18:05:59.531Z,22.80
2018-05-27T18:08:43.991Z,22.70
2018-05-27T18:11:25.584Z,22.50
2018-05-27T18:13:58.921Z,22.40
2018-05-27T18:16:39.474Z,22.40
2018-05-27T18:19:23.249Z,22.30
2018-05-27T18:22:05.079Z,22.40
2018-05-27T18:24:45.120Z,22.40
2018-05-27T18:27:25.542Z,22.40
2018-05-27T18:29:58.817Z,22.60
2018-05-27T18:32:34.806Z,23.20
2018-05-27T18:35:04.860Z,23.20
2018-05-27T18:37:34.663Z,23.30
2018-05-27T18:40:06.710Z,23.30
2018-05-27T18:42:46.286Z,23.10
2018-05-27T18:45:17.313Z,23.00
2018-05-27T18:47:46.919Z,22.80
2018-05-27T18:50:17.979Z,22.80
2018-05-27T18:52:48.413Z,22.80
2018-05-27T18:55:19.014Z,22.70
2018-05-27T18:57:54.312Z,22.60
2018-05-27T19:00:24.017Z,22.50
2018-05-27T19:02:55.033Z,22.50
2018-05-27T19:05:24.561Z,22.40
2018-05-27T19:07:54.045Z,22.50
2018-05-27T19:10:23.634Z,22.70
2018-05-27T19:12:53.345Z,22.90
2018-05-27T19:15:22.893Z,22.90
2018-05-27T19:17:52.602Z,22.80
2018-05-27T19:20:22.136Z,22.50
2018-05-27T19:22:52.522Z,22.20
2018-05-27T19:25:22.409Z,22.10
2018-05-27T19:27:51.987Z,22.30
2018-05-27T19:30:21.721Z,22.40
2018-05-27T19:32:53.254Z,22.30
2018-05-27T19:35:23.659Z,22.50
2018-05-27T19:37:53.273Z,22.50
2018-05-27T19:40:22.826Z,21.90
2018-05-27T19:42:52.335Z,21.60
2018-05-27T19:45:22.686Z,21.20
2018-05-27T19:47:52.200Z,20.90
2018-05-27T19:50:23.163Z,20.60
2018-05-27T19:52:52.694Z,20.50
2018-05-27T19:55:22.355Z,20.90
2018-05-27T19:57:51.980Z,21.30
2018-05-27T20:00:22.199Z,21.60
2018-05-27T20:02:51.862Z,21.70
2018-05-27T20:05:21.644Z,21.60
2018-05-27T20:07:52.078Z,21.00
2018-05-27T20:14:00.833Z,20.80
2018-05-27T20:16:48.572Z,20.80
2018-05-27T20:22:35.272Z,20.60
2018-05-27T20:25:06.029Z,19.90
2018-05-27T20:27:36.309Z,19.80
2018-05-27T20:30:06.060Z,19.80
2018-05-27T20:32:36.325Z,19.70
2018-05-27T20:35:05.942Z,19.70
2018-05-27T20:37:35.608Z,19.60
2018-05-27T20:40:05.433Z,19.50
2018-05-27T20:42:35.026Z,19.50
2018-05-27T20:45:05.526Z,19.40
2018-05-27T20:47:35.268Z,19.40
2018-05-27T20:50:04.910Z,19.50
2018-05-27T20:52:34.597Z,19.50
2018-05-27T20:55:04.160Z,19.70
2018-05-27T20:57:33.671Z,19.80
2018-05-27T21:00:03.229Z,19.90
2018-05-27T21:02:32.803Z,19.80
2018-05-27T21:05:03.761Z,18.80
2018-05-27T21:07:34.554Z,18.70
2018-05-27T21:10:04.420Z,18.60
2018-05-27T21:12:34.626Z,18.60
2018-05-27T21:15:05.070Z,18.70
2018-05-27T21:17:34.784Z,18.70
2018-05-27T21:20:05.395Z,18.90
2018-05-27T21:22:35.976Z,19.60
2018-05-27T21:25:05.454Z,19.60
2018-05-27T21:27:35.747Z,19.70
2018-05-27T21:30:05.588Z,19.80
2018-05-27T21:32:35.161Z,19.80
2018-05-27T21:35:05.620Z,19.90
2018-05-27T21:37:35.097Z,19.80
2018-05-27T21:40:05.554Z,19.80
2018-05-27T21:42:35.334Z,19.80
2018-05-27T21:45:05.750Z,19.80
2018-05-27T21:47:35.252Z,19.90
2018-05-27T21:50:05.080Z,20.20
2018-05-27T21:52:34.586Z,20.40
2018-05-27T21:55:07.213Z,20.60
2018-05-27T21:57:36.811Z,20.70
2018-05-27T22:00:06.890Z,20.80
2018-05-27T22:02:37.053Z,21.20
2018-05-27T22:05:06.651Z,21.30
2018-05-27T22:07:37.015Z,21.40
2018-05-27T22:10:06.896Z,21.30
2018-05-27T22:12:36.577Z,21.20
2018-05-27T22:15:07.017Z,20.90
2018-05-27T22:17:37.395Z,20.90
2018-05-27T22:20:08.406Z,20.80
2018-05-27T22:22:38.114Z,20.80
2018-05-27T22:25:07.855Z,20.70
2018-05-27T22:27:37.547Z,20.60
2018-05-27T22:30:07.096Z,20.30
2018-05-27T22:32:38.179Z,19.70
2018-05-27T22:35:07.777Z,19.70
2018-05-27T22:37:38.135Z,19.30
2018-05-27T22:40:07.704Z,19.30
2018-05-27T22:42:38.184Z,18.50
2018-05-27T22:45:08.261Z,18.50
2018-05-27T22:47:38.799Z,17.90
2018-05-27T22:50:09.383Z,17.70
2018-05-27T22:52:38.875Z,17.70
2018-05-27T22:55:08.583Z,17.70
2018-05-27T22:57:38.150Z,17.60
2018-05-27T23:00:07.766Z,17.60
2018-05-27T23:02:37.051Z,17.70
2018-05-27T23:05:06.898Z,17.80
2018-05-27T23:07:36.367Z,17.90
2018-05-27T23:10:05.891Z,18.10
2018-05-27T23:12:35.369Z,18.30
2018-05-27T23:15:04.950Z,18.30
2018-05-27T23:17:35.740Z,18.40
2018-05-27T23:20:05.611Z,18.50
2018-05-27T23:22:36.203Z,18.90
2018-05-27T23:25:06.137Z,18.90
2018-05-27T23:27:35.751Z,19.50
2018-05-27T23:30:06.969Z,20.30
2018-05-27T23:32:37.544Z,20.40
2018-05-27T23:35:07.146Z,20.40
2018-05-27T23:37:37.530Z,20.40
2018-05-27T23:40:07.228Z,20.30
2018-05-27T23:42:37.631Z,20.50
2018-05-27T23:45:07.928Z,20.50
2018-05-27T23:47:37.578Z,20.50
2018-05-27T23:50:07.777Z,20.50
2018-05-27T23:52:38.148Z,20.30
2018-05-27T23:55:07.945Z,20.30
2018-05-27T23:57:37.445Z,20.00
